Time;durP1;ratioP1;P1;durP2;ratioP2;P2;SDS_P1;SDS_P2;PMS_P1;PMS_P2;Temp;Humidity;BMP_temperature;BMP_pressure;BME280_temperature;BME280_humidity;BME280_pressure;Samples;Min_cycle;Max_cycle;Signal;HPM_P1;HPM_P2
2022/11/20 00:01:11;;;;;;;22.20;14.38;;;;;;;-2.81;76.37;100142.11;1770774;78;21044;-73
2022/11/20 00:03:37;;;;;;;19.62;13.80;;;;;;;-2.81;76.67;100154.64;1776831;78;21218;-74
2022/11/20 00:06:07;;;;;;;23.70;15.60;;;;;;;-2.87;76.89;100148.45;1764190;78;21040;-74
2022/11/20 00:08:33;;;;;;;24.98;16.23;;;;;;;-2.90;77.19;100151.17;1753175;81;21060;-75
2022/11/20 00:11:09;;;;;;;22.13;15.30;;;;;;;-2.92;77.54;100162.11;1754606;80;21029;-75
2022/11/20 00:13:35;;;;;;;28.20;17.35;;;;;;;-2.99;77.68;100166.77;1784288;80;21018;-73
2022/11/20 00:16:04;;;;;;;25.57;16.45;;;;;;;-3.01;77.76;100177.70;1784179;80;21232;-74
2022/11/20 00:18:35;;;;;;;25.12;16.90;;;;;;;-3.07;78.14;100185.78;1768958;80;21032;-74
2022/11/20 00:21:07;;;;;;;24.18;15.78;;;;;;;-3.05;78.40;100183.09;1797357;78;21095;-73
2022/11/20 00:23:33;;;;;;;19.80;14.93;;;;;;;-3.00;78.49;100166.83;1799783;78;21021;-75
2022/11/20 00:26:05;;;;;;;21.35;15.60;;;;;;;-2.97;78.55;100170.13;1753372;81;21108;-74
2022/11/20 00:28:31;;;;;;;21.52;15.13;;;;;;;-2.90;78.46;100168.55;1761551;80;21242;-73
2022/11/20 00:31:08;;;;;;;21.75;14.18;;;;;;;-2.91;78.25;100161.67;1783879;80;21104;-73
2022/11/20 00:33:34;;;;;;;23.10;15.98;;;;;;;-2.98;78.24;100175.40;1784234;80;21009;-72
2022/11/20 00:36:10;;;;;;;24.65;16.45;;;;;;;-2.98;78.43;100197.03;1783121;80;21009;-74
2022/11/20 00:38:37;;;;;;;21.40;14.38;;;;;;;-3.01;78.55;100191.99;1804592;78;21018;-72
2022/11/20 00:41:07;;;;;;;26.50;17.48;;;;;;;-3.06;78.65;100197.84;1782406;79;21982;-73
2022/11/20 00:43:35;;;;;;;24.85;16.02;;;;;;;-3.12;78.76;100196.84;1811647;79;21063;-74
2022/11/20 00:46:06;;;;;;;26.02;16.60;;;;;;;-3.20;79.02;100195.88;1783438;79;20985;-73
2022/11/20 00:48:33;;;;;;;26.75;19.70;;;;;;;-3.17;79.29;100189.69;1783864;80;21103;-72
2022/11/20 00:50:59;;;;;;;23.70;16.07;;;;;;;-3.16;79.38;100188.33;1784879;80;21500;-74
2022/11/20 00:53:26;;;;;;;29.65;17.17;;;;;;;-3.17;79.54;100187.96;1772537;80;21096;-73
2022/11/20 00:55:56;;;;;;;26.00;17.57;;;;;;;-3.10;79.66;100198.07;1766198;80;21001;-73
2022/11/20 00:58:23;;;;;;;28.83;18.23;;;;;;;-3.08;79.64;100202.74;1757776;78;21048;-72
2022/11/20 01:00:50;;;;;;;23.90;16.35;;;;;;;-3.10;79.50;100195.47;1784376;80;21025;-73
2022/11/20 01:03:18;;;;;;;29.15;17.07;;;;;;;-3.13;79.69;100178.23;1784422;79;21531;-73
2022/11/20 01:05:44;;;;;;;25.02;17.23;;;;;;;-3.13;79.80;100173.05;1803374;78;21114;-73
2022/11/20 01:08:12;;;;;;;27.07;16.77;;;;;;;-3.08;79.93;100176.28;1813293;79;21013;-75
2022/11/20 01:10:39;;;;;;;25.12;17.10;;;;;;;-3.02;79.91;100168.66;1797573;78;21002;-74
2022/11/20 01:15:50;;;;;;;27.48;17.37;;;;;;;-2.89;79.82;100174.14;1769785;79;21056;-74
2022/11/20 01:18:17;;;;;;;29.15;18.02;;;;;;;-2.77;79.65;100178.75;1789286;79;21140;-73
2022/11/20 01:20:44;;;;;;;23.85;16.70;;;;;;;-2.78;79.25;100179.22;1768459;79;21029;-72
2022/11/20 01:23:10;;;;;;;31.23;18.32;;;;;;;-2.81;79.36;100183.25;1754126;80;21064;-72
2022/11/20 01:25:37;;;;;;;23.75;16.67;;;;;;;-2.78;79.39;100176.62;1754136;80;21076;-72
2022/11/20 01:28:05;;;;;;;26.62;17.82;;;;;;;-2.77;79.43;100176.98;1768307;80;21033;-74
2022/11/20 01:30:32;;;;;;;26.10;16.62;;;;;;;-2.68;79.48;100180.92;1753230;81;21636;-73
2022/11/20 01:32:59;;;;;;;29.42;18.85;;;;;;;-2.64;79.56;100180.33;1769371;80;21020;-73
2022/11/20 01:35:26;;;;;;;27.42;19.05;;;;;;;-2.55;79.19;100179.02;1780823;80;21153;-73
2022/11/20 01:37:52;;;;;;;28.87;17.10;;;;;;;-2.55;79.18;100175.95;1765508;80;21050;-74
2022/11/20 01:40:19;;;;;;;26.68;18.15;;;;;;;-2.53;79.13;100171.55;1742331;82;21025;-74
2022/11/20 01:46:04;;;;;;;30.27;18.73;;;;;;;-2.46;78.83;100180.72;1770919;81;20994;-72
2022/11/20 01:48:48;;;;;;;26.82;18.20;;;;;;;-2.42;78.58;100182.72;1773117;81;21372;-74
2022/11/20 01:51:21;;;;;;;31.48;18.00;;;;;;;-2.46;78.52;100192.90;1773233;81;21009;-74
2022/11/20 01:53:47;;;;;;;33.28;20.40;;;;;;;-2.53;78.55;100190.20;1758924;81;20976;-73
2022/11/20 01:56:14;;;;;;;27.62;17.42;;;;;;;-2.55;78.62;100186.36;1731382;82;21832;-73
2022/11/20 01:58:48;;;;;;;27.37;18.45;;;;;;;-2.61;78.82;100196.63;1748674;79;21017;-74
2022/11/20 02:01:16;;;;;;;26.77;17.15;;;;;;;-2.60;78.83;100198.30;1751517;81;21644;-73
2022/11/20 02:03:42;;;;;;;30.25;19.27;;;;;;;-2.63;78.93;100197.17;1742361;82;21029;-75
2022/11/20 02:06:33;;;;;;;42.17;26.90;;;;;;;-2.64;78.93;100192.86;1744185;82;21565;-74
2022/11/20 02:08:59;;;;;;;30.75;18.85;;;;;;;-2.66;79.10;100206.87;1742670;82;21916;-74
2022/11/20 02:11:26;;;;;;;30.37;20.72;;;;;;;-2.68;79.25;100215.20;1761687;81;21556;-75
2022/11/20 02:13:53;;;;;;;36.70;20.57;;;;;;;-2.67;79.30;100212.51;1753604;81;21060;-73
2022/11/20 02:16:24;;;;;;;28.02;19.48;;;;;;;-2.71;79.42;100204.47;1742244;81;21124;-72
2022/11/20 02:18:51;;;;;;;30.52;21.97;;;;;;;-2.69;79.46;100200.03;1771618;81;21505;-73
2022/11/20 02:21:42;;;;;;;37.48;25.45;;;;;;;-2.72;79.45;100204.09;1772931;81;21518;-73
2022/11/20 02:24:14;;;;;;;32.98;22.15;;;;;;;-2.72;79.63;100211.03;1772967;81;21040;-74
2022/11/20 02:26:59;;;;;;;;;;;;;;;-2.69;79.91;100210.91;1760256;81;21029;-73
2022/11/20 02:29:40;;;;;;;37.33;22.65;;;;;;;-2.65;80.01;100211.14;1742740;82;26420;-74
2022/11/20 02:32:06;;;;;;;41.85;25.15;;;;;;;-2.61;79.89;100209.64;1742408;81;21600;-75
2022/11/20 02:34:32;;;;;;;35.80;22.32;;;;;;;-2.61;79.83;100224.38;1743076;81;21177;-74
2022/11/20 02:36:59;;;;;;;31.20;21.27;;;;;;;-2.63;79.91;100218.41;1742328;82;21013;-73
2022/11/20 02:39:26;;;;;;;30.85;21.15;;;;;;;-2.64;79.97;100212.38;1749886;80;20976;-74
2022/11/20 02:41:54;;;;;;;31.48;20.48;;;;;;;-2.65;80.07;100215.88;1753243;81;21055;-74
2022/11/20 02:44:21;;;;;;;28.12;19.05;;;;;;;-2.55;80.22;100211.55;1781322;80;21044;-72
2022/11/20 02:46:48;;;;;;;24.05;17.73;;;;;;;-2.49;80.54;100203.44;1784389;80;21015;-74
2022/11/20 02:49:16;;;;;;;27.45;17.65;;;;;;;-2.35;80.58;100204.94;1784201;80;21544;-72
2022/11/20 02:51:42;;;;;;;30.77;20.00;;;;;;;-2.26;80.37;100204.92;1756338;80;21099;-74
2022/11/20 02:54:09;;;;;;;31.20;20.23;;;;;;;-2.15;79.99;100203.11;1753513;81;21084;-74
2022/11/20 02:56:38;;;;;;;28.83;18.95;;;;;;;-2.08;79.81;100202.73;1753146;80;21008;-73
2022/11/20 02:59:05;;;;;;;28.27;20.17;;;;;;;-2.01;79.65;100205.86;1766841;78;21525;-73
2022/11/20 03:01:31;;;;;;;28.50;19.12;;;;;;;-1.93;79.30;100205.48;1784409;80;21033;-73
2022/11/20 03:03:58;;;;;;;29.27;20.95;;;;;;;-1.92;79.01;100213.69;1782921;80;20997;-71
2022/11/20 03:06:24;;;;;;;29.60;20.12;;;;;;;-1.85;78.82;100215.91;1760881;79;21005;-71
2022/11/20 03:08:51;;;;;;;33.00;22.40;;;;;;;-1.84;78.82;100222.78;1754263;80;21048;-74
2022/11/20 03:11:17;;;;;;;32.30;21.00;;;;;;;-1.80;78.57;100216.53;1753089;80;21247;-74
2022/11/20 03:13:44;;;;;;;31.20;20.82;;;;;;;-1.84;78.31;100222.78;1754479;80;21020;-75
2022/11/20 03:16:17;;;;;;;31.23;19.85;;;;;;;-1.88;78.24;100230.37;1753262;79;21056;-74
2022/11/20 03:18:43;;;;;;;28.57;19.05;;;;;;;-1.92;78.17;100224.10;1767320;78;21028;-72
2022/11/20 03:21:11;;;;;;;32.90;20.32;;;;;;;-1.95;78.36;100228.15;1805858;78;21008;-72
2022/11/20 03:23:38;;;;;;;32.48;22.07;;;;;;;-1.92;78.12;100237.13;1764547;80;22252;-73
2022/11/20 03:26:15;;;;;;;34.13;22.02;;;;;;;-1.97;78.13;100243.87;1764183;80;21044;-71
2022/11/20 03:28:51;;;;;;;31.20;20.72;;;;;;;-2.00;78.24;100240.94;1777764;80;21001;-72
2022/11/20 03:31:21;;;;;;;32.78;23.02;;;;;;;-2.04;78.35;100247.69;1772166;80;22113;-74
2022/11/20 03:33:49;;;;;;;34.00;22.55;;;;;;;-2.05;78.33;100248.59;1753492;81;21032;-70
2022/11/20 03:36:17;;;;;;;34.67;23.77;;;;;;;-2.09;78.55;100245.29;1770977;80;21090;-72
2022/11/20 03:38:44;;;;;;;33.30;22.55;;;;;;;-2.06;78.70;100233.44;1783550;79;21057;-74
2022/11/20 03:41:18;;;;;;;32.20;22.73;;;;;;;-2.01;78.73;100234.06;1764073;81;21033;-74
2022/11/20 03:43:51;;;;;;;32.88;22.80;;;;;;;-1.99;78.65;100228.76;1769997;81;21006;-74
2022/11/20 03:46:18;;;;;;;33.92;22.00;;;;;;;-1.93;78.60;100232.38;1784480;79;20989;-74
2022/11/20 03:48:44;;;;;;;35.03;23.52;;;;;;;-1.91;78.61;100233.15;1790841;79;21211;-75
2022/11/20 03:51:17;;;;;;;36.30;23.55;;;;;;;-1.83;78.40;100233.59;1752882;81;20973;-74
2022/11/20 03:53:45;;;;;;;40.05;24.70;;;;;;;-1.81;78.29;100225.25;1767108;81;21049;-73
2022/11/20 03:56:13;;;;;;;36.98;24.67;;;;;;;-1.74;78.13;100221.86;1772924;81;21009;-73
2022/11/20 03:58:40;;;;;;;41.68;25.92;;;;;;;-1.71;77.96;100225.62;1763160;79;21006;-74
2022/11/20 04:01:11;;;;;;;35.13;24.12;;;;;;;-1.68;78.00;100220.70;1742664;82;21229;-72
2022/11/20 04:03:39;;;;;;;40.15;23.80;;;;;;;-1.60;77.91;100229.00;1742525;82;21073;-72
2022/11/20 04:06:21;;;;;;;34.73;23.15;;;;;;;-1.60;77.71;100227.69;1742576;81;21667;-72
2022/11/20 04:08:47;;;;;;;34.98;24.52;;;;;;;-1.54;77.50;100223.93;1742537;82;21501;-73
2022/11/20 04:11:22;;;;;;;34.20;23.77;;;;;;;-1.54;77.43;100233.89;1771016;81;21541;-73
2022/11/20 04:13:52;;;;;;;32.20;22.82;;;;;;;-1.52;77.37;100239.02;1741462;81;21134;-72
2022/11/20 04:16:18;;;;;;;34.13;23.35;;;;;;;-1.51;77.25;100244.13;1742975;81;21096;-73
2022/11/20 04:18:46;;;;;;;32.40;23.60;;;;;;;-1.56;76.97;100230.52;1742570;82;21092;-75
2022/11/20 04:21:13;;;;;;;32.40;22.77;;;;;;;-1.60;76.94;100233.73;1742410;82;21044;-73
2022/11/20 04:23:39;;;;;;;37.00;24.77;;;;;;;-1.68;77.10;100233.73;1742835;81;20998;-73
2022/11/20 04:26:08;;;;;;;35.60;23.65;;;;;;;-1.70;77.10;100239.05;1745293;81;21234;-72
2022/11/20 04:28:36;;;;;;;36.08;23.55;;;;;;;-1.76;77.20;100229.38;1771443;81;21490;-73
2022/11/20 04:31:07;;;;;;;31.68;22.73;;;;;;;-1.73;77.58;100224.02;1770925;81;21073;-75
2022/11/20 04:33:34;;;;;;;40.45;24.82;;;;;;;-1.69;78.02;100225.08;1760160;81;21052;-74
2022/11/20 04:36:07;;;;;;;33.73;23.52;;;;;;;-1.60;77.98;100218.57;1742525;81;21029;-72
2022/11/20 04:38:34;;;;;;;;;;;;;;;-1.57;77.90;100214.95;1742155;82;21833;-74
2022/11/20 04:41:04;;;;;;;33.13;22.60;;;;;;;-1.57;77.88;100212.34;1765474;81;20481;-71
2022/11/20 04:43:32;;;;;;;38.55;23.42;;;;;;;-1.57;77.95;100205.84;1773053;81;20981;-73
2022/11/20 04:45:58;;;;;;;34.03;23.47;;;;;;;-1.59;78.17;100198.92;1773201;81;21540;-74
2022/11/20 04:48:26;;;;;;;35.23;22.10;;;;;;;-1.55;77.98;100195.70;1773229;81;21544;-74
2022/11/20 04:50:54;;;;;;;32.80;23.25;;;;;;;-1.56;78.15;100194.47;1758271;79;21221;-72
2022/11/20 04:53:21;;;;;;;32.38;21.42;;;;;;;-1.51;78.13;100188.10;1773058;81;21563;-75
2022/11/20 04:55:47;;;;;;;33.88;22.60;;;;;;;-1.49;78.04;100173.70;1773161;80;21520;-75
2022/11/20 04:58:14;;;;;;;34.48;22.65;;;;;;;-1.46;77.76;100161.82;1773369;79;20998;-73
2022/11/20 05:00:40;;;;;;;36.83;23.90;;;;;;;-1.51;77.64;100167.26;1787662;79;21061;-73
2022/11/20 05:03:07;;;;;;;33.33;21.52;;;;;;;-1.53;77.58;100164.36;1783321;79;21143;-72
2022/11/20 05:05:36;;;;;;;32.88;22.85;;;;;;;-1.62;77.53;100157.41;1764455;79;21438;-72
2022/11/20 05:08:04;;;;;;;35.60;24.07;;;;;;;-1.68;77.73;100155.14;1743506;81;21036;-73
2022/11/20 05:10:31;;;;;;;35.13;23.92;;;;;;;-1.71;77.90;100155.28;1752968;79;21026;-73
2022/11/20 05:12:57;;;;;;;37.88;25.43;;;;;;;-1.73;78.42;100157.12;1794478;79;21076;-74
2022/11/20 05:15:23;;;;;;;37.63;24.57;;;;;;;-1.66;78.56;100158.50;1792382;79;21123;-72
2022/11/20 05:17:51;;;;;;;33.30;24.23;;;;;;;-1.66;78.47;100158.94;1801108;79;21545;-72
2022/11/20 05:20:17;;;;;;;35.98;24.10;;;;;;;-1.60;78.65;100161.25;1804937;79;21006;-73
2022/11/20 05:22:45;;;;;;;37.40;25.92;;;;;;;-1.60;78.72;100166.46;1804628;79;21021;-74
2022/11/20 05:25:12;;;;;;;38.17;26.25;;;;;;;-1.53;78.48;100172.18;1760683;79;21005;-74
2022/11/20 05:27:39;;;;;;;34.25;25.95;;;;;;;-1.55;78.37;100157.09;1795684;79;21101;-75
2022/11/20 05:30:07;;;;;;;39.23;25.62;;;;;;;-1.57;78.14;100144.14;1800274;79;20994;-73
2022/11/20 05:32:34;;;;;;;43.52;28.98;;;;;;;-1.61;78.36;100136.94;1749766;79;21127;-74
2022/11/20 05:35:00;;;;;;;38.85;27.73;;;;;;;-1.61;78.59;100136.94;1789432;79;20998;-74
2022/11/20 05:37:26;;;;;;;42.80;27.50;;;;;;;-1.60;78.85;100133.89;1804747;79;21021;-74
2022/11/20 05:39:53;;;;;;;42.27;28.75;;;;;;;-1.61;79.06;100138.70;1810332;79;21837;-75
2022/11/20 05:42:31;;;;;;;40.67;27.35;;;;;;;-1.55;79.25;100142.76;1767919;78;20972;-72
2022/11/20 05:44:59;;;;;;;40.30;27.73;;;;;;;-1.56;79.36;100139.31;1769339;79;21010;-73
2022/11/20 05:47:27;;;;;;;40.60;28.35;;;;;;;-1.50;79.44;100140.77;1771300;78;21450;-74
2022/11/20 05:49:53;;;;;;;40.38;28.75;;;;;;;-1.48;79.60;100146.27;1796184;79;21044;-73
2022/11/20 05:52:21;;;;;;;42.60;27.80;;;;;;;-1.38;79.49;100157.03;1803833;79;21596;-74
2022/11/20 05:54:47;;;;;;;41.18;28.27;;;;;;;-1.32;79.50;100158.48;1815308;78;20998;-74
2022/11/20 05:57:14;;;;;;;38.90;27.13;;;;;;;-1.25;79.29;100152.02;1802339;78;21036;-73
2022/11/20 05:59:41;;;;;;;42.43;28.85;;;;;;;-1.20;79.27;100151.28;1782538;79;21101;-74
2022/11/20 06:02:07;;;;;;;43.45;29.20;;;;;;;-1.15;79.29;100147.98;1773793;79;21033;-74
2022/11/20 06:04:34;;;;;;;45.12;28.95;;;;;;;-1.09;78.98;100150.25;1784375;80;21355;-75
2022/11/20 06:07:00;;;;;;;47.90;29.98;;;;;;;-1.11;78.97;100151.27;1786310;79;21553;-73
2022/11/20 06:09:27;;;;;;;43.33;29.12;;;;;;;-1.07;79.12;100147.56;1786523;79;21088;-73
2022/11/20 06:11:53;;;;;;;44.70;30.52;;;;;;;-1.05;79.33;100151.76;1780794;79;21075;-69
2022/11/20 06:14:20;;;;;;;45.78;31.52;;;;;;;-0.97;79.40;100155.25;1787826;78;21516;-74
2022/11/20 06:16:48;;;;;;;44.15;31.15;;;;;;;-0.97;79.40;100163.08;1777999;78;20985;-73
2022/11/20 06:19:15;;;;;;;45.10;29.27;;;;;;;-0.88;79.47;100157.36;1795838;78;21472;-74
2022/11/20 06:21:41;;;;;;;40.40;30.37;;;;;;;-0.83;79.39;100157.95;1797689;78;21049;-74
2022/11/20 06:24:10;;;;;;;39.88;28.60;;;;;;;-0.75;79.25;100160.58;1798193;78;21025;-73
2022/11/20 06:26:37;;;;;;;42.55;29.55;;;;;;;-0.74;79.23;100166.19;1770219;78;21131;-73
2022/11/20 06:29:04;;;;;;;42.45;29.63;;;;;;;-0.65;79.08;100165.68;1795264;78;21132;-73
2022/11/20 06:31:34;;;;;;;37.63;28.20;;;;;;;-0.64;78.89;100165.60;1787911;78;21556;-74
2022/11/20 06:33:59;;;;;;;40.85;28.85;;;;;;;-0.57;78.95;100166.55;1784316;78;21021;-75
2022/11/20 06:36:25;;;;;;;38.88;26.95;;;;;;;-0.55;78.99;100160.31;1794079;78;21009;-74
2022/11/20 06:38:51;;;;;;;41.65;27.22;;;;;;;-0.49;78.58;100155.21;1784848;80;20949;-73
2022/11/20 06:41:21;;;;;;;36.65;24.50;;;;;;;-0.54;78.21;100147.66;1775763;79;21197;-74
2022/11/20 06:43:48;;;;;;;34.73;24.32;;;;;;;-0.53;77.74;100146.70;1773027;81;22058;-73
2022/11/20 06:46:17;;;;;;;35.50;25.50;;;;;;;-0.56;77.43;100136.91;1772908;79;21072;-73
2022/11/20 06:48:44;;;;;;;32.60;23.62;;;;;;;-0.58;77.25;100130.94;1766402;79;21048;-75
2022/11/20 06:51:10;;;;;;;31.55;22.77;;;;;;;-0.56;77.25;100136.91;1765622;79;21502;-74
2022/11/20 06:53:37;;;;;;;31.12;23.40;;;;;;;-0.53;77.12;100134.12;1769212;79;21040;-74
2022/11/20 06:56:05;;;;;;;32.08;20.92;;;;;;;-0.49;76.95;100135.16;1764125;81;21068;-73
2022/11/20 06:58:32;;;;;;;33.33;23.15;;;;;;;-0.49;76.83;100140.38;1745996;81;21037;-73
2022/11/20 07:01:06;;;;;;;31.42;21.30;;;;;;;-0.46;76.69;100133.69;1742335;82;21012;-73
2022/11/20 07:03:33;;;;;;;27.25;20.92;;;;;;;-0.46;76.49;100132.39;1742253;82;21053;-74
2022/11/20 07:06:01;;;;;;;28.98;19.95;;;;;;;-0.41;76.18;100143.86;1752553;81;21098;-74
2022/11/20 07:08:29;;;;;;;29.40;20.40;;;;;;;-0.46;75.96;100142.83;1742243;82;21144;-73
2022/11/20 07:11:00;;;;;;;25.25;19.17;;;;;;;-0.44;75.72;100128.39;1742549;82;20989;-73
2022/11/20 07:13:27;;;;;;;26.70;18.73;;;;;;;-0.47;75.61;100128.55;1742240;82;21056;-74
2022/11/20 07:15:54;;;;;;;29.80;19.23;;;;;;;-0.47;75.37;100129.86;1742307;81;21047;-75
2022/11/20 07:18:21;;;;;;;25.55;18.85;;;;;;;-0.50;75.37;100129.58;1742183;82;21205;-74
2022/11/20 07:20:49;;;;;;;22.87;16.25;;;;;;;-0.45;75.17;100122.78;1742210;82;21074;-75
2022/11/20 07:23:15;;;;;;;22.80;17.45;;;;;;;-0.48;74.39;100108.14;1763551;79;21001;-74
2022/11/20 07:25:42;;;;;;;21.20;14.75;;;;;;;-0.47;74.20;100123.33;1742281;82;21082;-74
2022/11/20 07:28:10;;;;;;;20.77;14.68;;;;;;;-0.51;73.81;100125.27;1742846;81;21111;-73
2022/11/20 07:30:37;;;;;;;21.87;14.68;;;;;;;-0.54;73.58;100120.25;1742199;82;21403;-75
2022/11/20 07:33:04;;;;;;;20.08;15.15;;;;;;;-0.54;73.67;100129.83;1742293;82;21017;-75
2022/11/20 07:35:31;;;;;;;20.37;15.38;;;;;;;-0.48;73.66;100129.02;1742289;81;21020;-73
2022/11/20 07:37:57;;;;;;;20.80;15.00;;;;;;;-0.45;73.21;100136.66;1742294;82;21013;-74
2022/11/20 07:40:24;;;;;;;17.60;13.70;;;;;;;-0.37;73.08;100152.36;1745769;80;21082;-74
2022/11/20 07:42:54;;;;;;;19.30;15.25;;;;;;;-0.35;72.97;100157.02;1753201;81;21056;-75
2022/11/20 07:45:22;;;;;;;16.50;12.93;;;;;;;-0.26;72.82;100144.28;1754015;80;21560;-74
2022/11/20 07:47:48;;;;;;;14.58;12.10;;;;;;;-0.25;72.52;100143.36;1754373;81;21016;-75
2022/11/20 07:50:15;;;;;;;16.97;13.50;;;;;;;-0.18;72.14;100143.00;1754594;81;21584;-74
2022/11/20 07:54:36;;;;;;;17.10;13.77;;;;;;;-0.09;71.94;100138.55;1834199;77;22296;-74
2022/11/20 07:57:02;;;;;;;16.45;13.40;;;;;;;-0.11;71.79;100132.58;1801459;79;21061;-75
2022/11/20 07:59:29;;;;;;;21.07;15.28;;;;;;;-0.13;71.53;100124.83;1786520;79;21525;-73
2022/11/20 08:01:55;;;;;;;20.65;16.05;;;;;;;-0.13;71.37;100117.47;1804278;79;20882;-75
2022/11/20 08:04:23;;;;;;;19.55;15.05;;;;;;;-0.20;71.71;100110.44;1801469;79;21006;-75
2022/11/20 08:06:52;;;;;;;20.43;16.12;;;;;;;-0.14;72.01;100097.48;1801670;79;21006;-76
2022/11/20 08:09:18;;;;;;;20.75;16.30;;;;;;;-0.14;72.39;100087.05;1781856;79;21119;-74
2022/11/20 08:14:31;;;;;;;20.17;16.50;;;;;;;-0.07;72.33;100100.12;1760214;80;20988;-73
2022/11/20 08:16:59;;;;;;;18.75;15.20;;;;;;;-0.04;72.46;100109.06;1769574;81;20977;-75
2022/11/20 08:19:26;;;;;;;21.12;16.97;;;;;;;0.00;72.38;100101.44;1769748;80;21018;-75
2022/11/20 08:21:53;;;;;;;21.17;15.53;;;;;;;0.04;72.34;100095.55;1781036;79;21052;-74
2022/11/20 08:24:19;;;;;;;23.10;16.52;;;;;;;0.04;72.28;100097.71;1799343;79;21069;-73
2022/11/20 08:26:46;;;;;;;19.23;15.25;;;;;;;0.11;72.25;100094.25;1787619;79;20993;-76
2022/11/20 08:29:13;;;;;;;21.27;16.62;;;;;;;0.14;72.24;100097.52;1774978;79;21033;-76
2022/11/20 08:31:41;;;;;;;18.80;15.85;;;;;;;0.14;72.21;100089.68;1784344;79;21009;-75
2022/11/20 08:34:08;;;;;;;21.15;17.20;;;;;;;0.19;72.24;100099.84;1769500;81;21059;-74
2022/11/20 08:36:35;;;;;;;20.90;15.45;;;;;;;0.22;72.23;100100.14;1769565;81;21123;-75
2022/11/20 08:39:02;;;;;;;21.42;17.10;;;;;;;0.25;71.96;100097.33;1769506;80;20990;-75
2022/11/20 08:41:32;;;;;;;19.73;15.68;;;;;;;0.28;71.96;100092.76;1787638;79;21001;-74
2022/11/20 08:44:00;;;;;;;23.83;17.50;;;;;;;0.37;71.96;100095.29;1797565;79;21001;-74
2022/11/20 08:46:36;;;;;;;20.48;15.72;;;;;;;0.41;71.64;100087.63;1797467;79;21040;-76
2022/11/20 08:49:07;;;;;;;22.35;16.12;;;;;;;0.47;71.50;100101.62;1780285;79;21080;-74
2022/11/20 08:51:35;;;;;;;24.18;17.37;;;;;;;0.43;71.38;100106.67;1769789;81;21049;-75
2022/11/20 08:54:02;;;;;;;21.70;15.75;;;;;;;0.44;71.17;100099.19;1769196;79;21045;-75
2022/11/20 08:56:29;;;;;;;22.58;16.90;;;;;;;0.37;71.48;100100.05;1780424;79;21539;-74
2022/11/20 08:58:55;;;;;;;25.95;18.10;;;;;;;0.38;71.53;100093.03;1801120;78;21537;-73
2022/11/20 09:01:23;;;;;;;26.53;18.87;;;;;;;0.32;71.53;100078.56;1800952;79;21761;-74
2022/11/20 09:03:49;;;;;;;29.52;18.92;;;;;;;0.37;71.79;100066.54;1798488;79;20997;-74
2022/11/20 09:06:16;;;;;;;26.95;17.98;;;;;;;0.37;71.91;100049.55;1777389;79;21025;-76
2022/11/20 09:08:44;;;;;;;23.70;16.45;;;;;;;0.40;71.73;100044.11;1796979;79;21005;-74
2022/11/20 09:11:11;;;;;;;28.98;18.73;;;;;;;0.36;71.51;100050.47;1797121;79;21009;-75
2022/11/20 09:13:38;;;;;;;27.45;19.15;;;;;;;0.33;71.45;100060.66;1796805;79;21842;-75
2022/11/20 09:16:07;;;;;;;34.83;21.55;;;;;;;0.30;71.72;100053.47;1796941;79;21048;-75
2022/11/20 09:18:38;;;;;;;34.80;21.40;;;;;;;0.34;71.88;100051.03;1796855;79;21031;-74
2022/11/20 09:21:10;;;;;;;32.03;19.20;;;;;;;0.34;71.83;100052.34;1798146;79;21040;-74
2022/11/20 09:23:37;;;;;;;28.83;18.32;;;;;;;0.35;71.79;100047.02;1774417;79;21045;-74
2022/11/20 09:26:08;;;;;;;34.98;21.02;;;;;;;0.31;71.99;100045.98;1784640;79;21531;-73
2022/11/20 09:28:35;;;;;;;37.38;21.70;;;;;;;0.32;72.18;100033.30;1800909;79;21535;-75
2022/11/20 09:31:06;;;;;;;34.20;21.30;;;;;;;0.33;72.43;100042.84;1807077;79;21022;-75
2022/11/20 09:33:35;;;;;;;36.13;21.17;;;;;;;0.38;72.40;100036.84;1768536;79;21005;-75
2022/11/20 09:36:02;;;;;;;37.42;22.10;;;;;;;0.33;72.32;100031.08;1748016;79;21080;-75
2022/11/20 09:38:29;;;;;;;39.25;21.75;;;;;;;0.32;72.56;100022.85;1800450;79;21141;-76
2022/11/20 09:41:05;;;;;;;36.85;21.48;;;;;;;0.28;72.59;100013.53;1769924;79;21536;-75
2022/11/20 09:44:15;;;;;;;40.23;23.15;;;;;;;0.26;72.73;100012.78;1795074;79;21036;-75
2022/11/20 09:47:02;;;;;;;35.88;21.70;;;;;;;0.25;72.99;100012.40;1800611;79;21002;-76
2022/11/20 09:49:56;;;;;;;30.02;19.75;;;;;;;0.29;73.25;100010.83;1796968;79;21060;-74
2022/11/20 09:52:41;;;;;;;33.13;21.48;;;;;;;0.31;73.37;100008.09;1796874;79;21187;-75
2022/11/20 09:55:10;;;;;;;27.73;18.75;;;;;;;0.34;73.47;100006.60;1796021;78;20989;-75
2022/11/20 09:57:43;;;;;;;34.30;20.23;;;;;;;0.34;73.47;100003.99;1796415;79;21064;-74
2022/11/20 10:00:12;;;;;;;32.35;19.65;;;;;;;0.38;73.50;100002.86;1825280;78;21049;-75
2022/11/20 10:03:20;;;;;;;25.27;18.05;;;;;;;0.39;73.55;99997.54;1829001;78;21575;-75
2022/11/20 10:05:50;;;;;;;32.90;18.65;;;;;;;0.42;73.38;99992.58;1826646;78;21232;-74
2022/11/20 10:08:34;;;;;;;32.17;19.67;;;;;;;0.36;73.52;99989.88;1800777;79;21017;-75
2022/11/20 10:11:25;;;;;;;25.68;18.12;;;;;;;0.40;73.69;99994.45;1800263;79;21030;-75
2022/11/20 10:14:04;;;;;;;30.17;19.10;;;;;;;0.42;73.71;99992.58;1799397;79;21061;-75
2022/11/20 10:16:58;;;;;;;28.42;18.10;;;;;;;0.48;73.65;99989.56;1800200;79;21053;-75
2022/11/20 10:20:05;;;;;;;29.23;19.40;;;;;;;0.45;73.72;99978.02;1798830;79;21086;-76
2022/11/20 10:22:56;;;;;;;26.62;18.37;;;;;;;0.52;73.48;99969.30;1796776;79;21013;-75
2022/11/20 10:25:27;;;;;;;28.10;17.70;;;;;;;0.50;73.59;99968.12;1776043;80;21124;-75
2022/11/20 10:28:12;;;;;;;32.93;19.52;;;;;;;0.55;73.47;99958.66;1794528;79;21229;-75
2022/11/20 10:30:44;;;;;;;32.30;19.27;;;;;;;0.54;73.61;99961.75;1795335;79;21057;-75
2022/11/20 10:33:21;;;;;;;28.67;18.20;;;;;;;0.59;73.50;99956.22;1797171;79;21215;-75
2022/11/20 10:36:14;;;;;;;30.45;18.87;;;;;;;0.59;73.44;99952.30;1796830;79;21072;-74
2022/11/20 10:38:45;;;;;;;27.77;19.27;;;;;;;0.64;73.55;99953.29;1796966;79;21036;-75
2022/11/20 10:41:25;;;;;;;32.10;19.15;;;;;;;0.66;73.72;99960.59;1797130;79;21013;-74
2022/11/20 10:47:10;;;;;;;25.05;18.05;;;;;;;0.76;73.67;99950.73;1791755;79;21300;-75
2022/11/20 10:49:37;;;;;;;27.35;17.90;;;;;;;0.75;73.47;99954.74;1766859;80;21052;-76
2022/11/20 10:52:39;;;;;;;34.75;19.80;;;;;;;0.74;73.48;99961.77;1769232;80;21052;-75
2022/11/20 10:55:24;;;;;;;31.50;19.35;;;;;;;0.71;73.68;99954.10;1774954;79;21045;-75
2022/11/20 10:58:14;;;;;;;29.80;18.17;;;;;;;0.72;73.82;99956.27;1800640;79;21009;-76
2022/11/20 11:00:42;;;;;;;27.67;19.02;;;;;;;0.65;74.02;99951.89;1800493;79;21899;-73
2022/11/20 11:03:29;;;;;;;28.35;18.67;;;;;;;0.60;74.10;99940.91;1800387;79;21029;-75
2022/11/20 11:06:38;;;;;;;26.87;18.55;;;;;;;0.52;74.44;99929.64;1805900;78;21100;-76
2022/11/20 11:09:19;;;;;;;29.10;18.57;;;;;;;0.49;74.53;99925.08;1804453;78;21052;-76
2022/11/20 11:11:46;;;;;;;34.50;20.13;;;;;;;0.44;74.76;99924.05;1798195;78;21016;-75
2022/11/20 11:14:14;;;;;;;27.98;18.20;;;;;;;0.38;74.92;99931.81;1798127;78;21675;-74
2022/11/20 11:16:56;;;;;;;25.27;16.73;;;;;;;0.36;75.24;99927.63;1780616;79;21504;-74
2022/11/20 11:19:28;;;;;;;27.17;19.00;;;;;;;0.30;75.51;99925.41;1815820;78;21054;-75
2022/11/20 11:22:03;;;;;;;23.50;17.10;;;;;;;0.31;75.68;99920.55;1784639;78;21066;-75
2022/11/20 11:24:30;;;;;;;23.40;18.15;;;;;;;0.26;76.15;99923.94;1799017;78;21153;-74
2022/11/20 11:27:06;;;;;;;24.98;17.80;;;;;;;0.27;76.31;99921.23;1783525;78;21802;-76
2022/11/20 11:29:35;;;;;;;23.27;16.90;;;;;;;0.24;76.49;99916.67;1786902;78;21036;-76
2022/11/20 11:32:21;;;;;;;25.77;17.87;;;;;;;0.25;76.67;99912.66;1818945;78;20982;-74
2022/11/20 11:35:04;;;;;;;23.00;16.82;;;;;;;0.22;76.89;99913.31;1800572;79;21024;-73
2022/11/20 11:37:36;;;;;;;23.75;17.55;;;;;;;0.23;76.97;99913.67;1797328;79;21041;-76
2022/11/20 11:40:04;;;;;;;22.07;18.02;;;;;;;0.12;77.28;99919.12;1769076;81;21134;-73
2022/11/20 11:42:31;;;;;;;24.52;16.57;;;;;;;0.09;77.58;99908.85;1749606;81;21540;-76